Terminal Aerodrome Forecast
Issued by NWS

Home | Current Version | Previous Version | Text Only | Print | Product List | Glossary On
Versions: 1 2 3 4 5 6 7 8 9 10 11 12 13 14 15
303
FTUS46 KPDT 221120
TAFDLS
TAF
KDLS 221120Z 2212/2312 30008KT P6SM SCT250
     FM230400 VRB04KT P6SM SKC=

USA.gov is the U.S. government's official web portal to all federal, state and local government web resources and services.